sensor_id;sensor_type;location;lat;lon;timestamp;pressure;altitude;pressure_sealevel;temperature;humidity
5284;BME280;15377;48.540;9.268;2023-09-07T00:00:43;97796.47;;;13.73;100.00
5284;BME280;15377;48.540;9.268;2023-09-07T00:03:08;97804.63;;;13.62;100.00
5284;BME280;15377;48.540;9.268;2023-09-07T00:05:34;97800.69;;;13.48;100.00
5284;BME280;15377;48.540;9.268;2023-09-07T00:07:59;97788.72;;;13.57;100.00
5284;BME280;15377;48.540;9.268;2023-09-07T00:10:25;97801.50;;;13.89;100.00
5284;BME280;15377;48.540;9.268;2023-09-07T00:12:51;97793.25;;;13.94;100.00
5284;BME280;15377;48.540;9.268;2023-09-07T00:15:16;97794.41;;;13.88;100.00
5284;BME280;15377;48.540;9.268;2023-09-07T00:17:44;97806.88;;;13.78;100.00
5284;BME280;15377;48.540;9.268;2023-09-07T00:20:10;97796.22;;;13.71;100.00
5284;BME280;15377;48.540;9.268;2023-09-07T00:22:36;97802.53;;;13.57;100.00
5284;BME280;15377;48.540;9.268;2023-09-07T00:25:02;97797.53;;;13.41;100.00
5284;BME280;15377;48.540;9.268;2023-09-07T00:27:29;97799.41;;;13.15;100.00
5284;BME280;15377;48.540;9.268;2023-09-07T00:29:54;97787.88;;;12.87;100.00
5284;BME280;15377;48.540;9.268;2023-09-07T00:32:20;97811.88;;;12.81;100.00
5284;BME280;15377;48.540;9.268;2023-09-07T00:34:45;97806.19;;;12.70;100.00
5284;BME280;15377;48.540;9.268;2023-09-07T00:37:11;97800.56;;;12.65;100.00
5284;BME280;15377;48.540;9.268;2023-09-07T00:39:37;97806.84;;;12.65;100.00
5284;BME280;15377;48.540;9.268;2023-09-07T00:42:03;97810.00;;;12.73;100.00
5284;BME280;15377;48.540;9.268;2023-09-07T00:44:28;97795.03;;;12.50;100.00
5284;BME280;15377;48.540;9.268;2023-09-07T00:46:54;97805.50;;;12.61;100.00
5284;BME280;15377;48.540;9.268;2023-09-07T00:49:19;97811.59;;;12.79;100.00
5284;BME280;15377;48.540;9.268;2023-09-07T00:51:44;97802.09;;;12.66;100.00
5284;BME280;15377;48.540;9.268;2023-09-07T00:54:10;97820.47;;;12.69;100.00
5284;BME280;15377;48.540;9.268;2023-09-07T00:56:36;97808.06;;;12.64;100.00
5284;BME280;15377;48.540;9.268;2023-09-07T00:59:02;97804.38;;;12.67;100.00
5284;BME280;15377;48.540;9.268;2023-09-07T01:01:27;97804.28;;;12.76;100.00
5284;BME280;15377;48.540;9.268;2023-09-07T01:03:54;97805.34;;;12.79;100.00
5284;BME280;15377;48.540;9.268;2023-09-07T01:07:00;97811.72;;;12.70;100.00
5284;BME280;15377;48.540;9.268;2023-09-07T01:09:30;97803.88;;;12.54;100.00
5284;BME280;15377;48.540;9.268;2023-09-07T01:11:56;97810.44;;;12.42;100.00
5284;BME280;15377;48.540;9.268;2023-09-07T01:14:22;97796.34;;;12.26;100.00
5284;BME280;15377;48.540;9.268;2023-09-07T01:16:48;97790.72;;;12.20;100.00
5284;BME280;15377;48.540;9.268;2023-09-07T01:19:14;97792.72;;;12.20;100.00
5284;BME280;15377;48.540;9.268;2023-09-07T01:21:40;97792.72;;;12.20;100.00
5284;BME280;15377;48.540;9.268;2023-09-07T01:24:10;97803.56;;;12.38;100.00
5284;BME280;15377;48.540;9.268;2023-09-07T01:26:37;97805.50;;;12.32;100.00
5284;BME280;15377;48.540;9.268;2023-09-07T01:29:08;97797.31;;;12.37;100.00
5284;BME280;15377;48.540;9.268;2023-09-07T01:31:37;97801.78;;;12.35;100.00
5284;BME280;15377;48.540;9.268;2023-09-07T01:34:03;97791.00;;;12.37;100.00
5284;BME280;15377;48.540;9.268;2023-09-07T01:36:29;97788.75;;;12.35;100.00
5284;BME280;15377;48.540;9.268;2023-09-07T01:38:55;97771.22;;;12.24;100.00
5284;BME280;15377;48.540;9.268;2023-09-07T01:41:20;97801.41;;;12.42;100.00
5284;BME280;15377;48.540;9.268;2023-09-07T01:43:45;97777.13;;;12.31;100.00
5284;BME280;15377;48.540;9.268;2023-09-07T01:46:11;97796.81;;;12.39;100.00
5284;BME280;15377;48.540;9.268;2023-09-07T01:48:36;97793.78;;;12.37;100.00
5284;BME280;15377;48.540;9.268;2023-09-07T01:51:01;97795.19;;;12.32;100.00
5284;BME280;15377;48.540;9.268;2023-09-07T01:53:27;97796.34;;;12.26;100.00
5284;BME280;15377;48.540;9.268;2023-09-07T01:55:56;97810.13;;;12.26;100.00
5284;BME280;15377;48.540;9.268;2023-09-07T01:58:22;97803.38;;;12.27;100.00
5284;BME280;15377;48.540;9.268;2023-09-07T02:00:49;97793.84;;;12.28;100.00
5284;BME280;15377;48.540;9.268;2023-09-07T02:03:14;97795.38;;;12.29;100.00
5284;BME280;15377;48.540;9.268;2023-09-07T02:05:40;97799.56;;;12.39;100.00
5284;BME280;15377;48.540;9.268;2023-09-07T02:08:05;97805.09;;;12.39;100.00
5284;BME280;15377;48.540;9.268;2023-09-07T02:10:31;97764.72;;;12.12;100.00
5284;BME280;15377;48.540;9.268;2023-09-07T02:12:56;97801.78;;;12.35;100.00
5284;BME280;15377;48.540;9.268;2023-09-07T02:15:23;97788.25;;;12.22;100.00
5284;BME280;15377;48.540;9.268;2023-09-07T02:17:48;97786.44;;;12.19;100.00
5284;BME280;15377;48.540;9.268;2023-09-07T02:20:13;97794.41;;;12.17;100.00
5284;BME280;15377;48.540;9.268;2023-09-07T02:22:39;97794.94;;;12.07;100.00
5284;BME280;15377;48.540;9.268;2023-09-07T02:25:05;97792.56;;;12.00;100.00
5284;BME280;15377;48.540;9.268;2023-09-07T02:27:32;97799.63;;;12.01;100.00
5284;BME280;15377;48.540;9.268;2023-09-07T02:29:57;97788.66;;;11.92;100.00
5284;BME280;15377;48.540;9.268;2023-09-07T02:32:23;97790.91;;;11.93;100.00
5284;BME280;15377;48.540;9.268;2023-09-07T02:34:48;97793.78;;;11.99;100.00
5284;BME280;15377;48.540;9.268;2023-09-07T02:37:13;97788.06;;;11.88;100.00
5284;BME280;15377;48.540;9.268;2023-09-07T02:39:41;97799.38;;;11.90;100.00
5284;BME280;15377;48.540;9.268;2023-09-07T02:42:06;97793.94;;;11.81;100.00
5284;BME280;15377;48.540;9.268;2023-09-07T02:44:32;97775.81;;;11.65;100.00
5284;BME280;15377;48.540;9.268;2023-09-07T02:46:57;97784.59;;;11.78;100.00
5284;BME280;15377;48.540;9.268;2023-09-07T02:49:22;97794.81;;;11.87;100.00
5284;BME280;15377;48.540;9.268;2023-09-07T02:51:47;97787.19;;;11.82;100.00
5284;BME280;15377;48.540;9.268;2023-09-07T02:54:13;97783.50;;;11.85;100.00
5284;BME280;15377;48.540;9.268;2023-09-07T02:56:38;97762.72;;;11.75;100.00
5284;BME280;15377;48.540;9.268;2023-09-07T02:59:04;97786.53;;;11.87;100.00
5284;BME280;15377;48.540;9.268;2023-09-07T03:01:30;97776.63;;;11.80;100.00
5284;BME280;15377;48.540;9.268;2023-09-07T03:03:55;97765.47;;;11.75;100.00
5284;BME280;15377;48.540;9.268;2023-09-07T03:06:20;97775.25;;;11.76;100.00
5284;BME280;15377;48.540;9.268;2023-09-07T03:08:46;97783.53;;;11.76;100.00
5284;BME280;15377;48.540;9.268;2023-09-07T03:11:11;97775.50;;;11.87;100.00
5284;BME280;15377;48.540;9.268;2023-09-07T03:13:37;97772.09;;;11.92;100.00
5284;BME280;15377;48.540;9.268;2023-09-07T03:16:03;97763.16;;;11.97;100.00
5284;BME280;15377;48.540;9.268;2023-09-07T03:18:29;97768.13;;;12.07;100.00
5284;BME280;15377;48.540;9.268;2023-09-07T03:20:55;97752.97;;;11.88;100.00
5284;BME280;15377;48.540;9.268;2023-09-07T03:23:21;97763.16;;;11.97;100.00
5284;BME280;15377;48.540;9.268;2023-09-07T03:25:47;97768.69;;;11.97;100.00
5284;BME280;15377;48.540;9.268;2023-09-07T03:28:13;97760.91;;;12.10;100.00
5284;BME280;15377;48.540;9.268;2023-09-07T03:30:38;97774.03;;;12.15;100.00
5284;BME280;15377;48.540;9.268;2023-09-07T03:33:04;97772.66;;;12.34;100.00
5284;BME280;15377;48.540;9.268;2023-09-07T03:35:30;97780.66;;;12.32;100.00
5284;BME280;15377;48.540;9.268;2023-09-07T03:37:55;97776.16;;;12.20;100.00
5284;BME280;15377;48.540;9.268;2023-09-07T03:40:21;97774.72;;;12.10;100.00
5284;BME280;15377;48.540;9.268;2023-09-07T03:42:46;97779.06;;;12.02;100.00
5284;BME280;15377;48.540;9.268;2023-09-07T03:45:11;97784.34;;;12.29;100.00
5284;BME280;15377;48.540;9.268;2023-09-07T03:47:37;97772.56;;;12.43;100.00
5284;BME280;15377;48.540;9.268;2023-09-07T03:50:03;97780.56;;;12.41;100.00
5284;BME280;15377;48.540;9.268;2023-09-07T03:52:28;97763.69;;;12.24;100.00
5284;BME280;15377;48.540;9.268;2023-09-07T03:54:54;97772.50;;;12.14;100.00
5284;BME280;15377;48.540;9.268;2023-09-07T03:57:20;97771.53;;;12.02;100.00
5284;BME280;15377;48.540;9.268;2023-09-07T03:59:47;97780.56;;;11.88;100.00
5284;BME280;15377;48.540;9.268;2023-09-07T04:02:12;97768.97;;;11.61;100.00
5284;BME280;15377;48.540;9.268;2023-09-07T04:04:38;97767.16;;;11.49;100.00
5284;BME280;15377;48.540;9.268;2023-09-07T04:07:03;97775.41;;;11.49;100.00
5284;BME280;15377;48.540;9.268;2023-09-07T04:09:29;97758.41;;;11.27;100.00
5284;BME280;15377;48.540;9.268;2023-09-07T04:11:54;97764.84;;;11.24;100.00
5284;BME280;15377;48.540;9.268;2023-09-07T04:14:20;97760.75;;;11.19;100.00
5284;BME280;15377;48.540;9.268;2023-09-07T04:16:45;97773.88;;;11.24;100.00
5284;BME280;15377;48.540;9.268;2023-09-07T04:19:10;97767.16;;;11.16;100.00
5284;BME280;15377;48.540;9.268;2023-09-07T04:21:36;97772.50;;;11.20;100.00
5284;BME280;15377;48.540;9.268;2023-09-07T04:24:02;97775.91;;;11.15;100.00
5284;BME280;15377;48.540;9.268;2023-09-07T04:26:27;97767.16;;;11.16;100.00
5284;BME280;15377;48.540;9.268;2023-09-07T04:28:54;97771.31;;;11.21;100.00
5284;BME280;15377;48.540;9.268;2023-09-07T04:31:19;97770.25;;;11.42;100.00
5284;BME280;15377;48.540;9.268;2023-09-07T04:33:46;97777.53;;;11.54;100.00
5284;BME280;15377;48.540;9.268;2023-09-07T04:36:12;97782.69;;;11.70;100.00
5284;BME280;15377;48.540;9.268;2023-09-07T04:38:39;97768.22;;;11.75;100.00
5284;BME280;15377;48.540;9.268;2023-09-07T04:41:12;97770.00;;;11.63;100.00
5284;BME280;15377;48.540;9.268;2023-09-07T04:43:38;97771.53;;;11.55;100.00
5284;BME280;15377;48.540;9.268;2023-09-07T04:46:11;97760.69;;;11.52;100.00
5284;BME280;15377;48.540;9.268;2023-09-07T04:48:36;97777.53;;;11.54;100.00
5284;BME280;15377;48.540;9.268;2023-09-07T04:51:04;97762.59;;;11.46;100.00
5284;BME280;15377;48.540;9.268;2023-09-07T04:53:31;97774.34;;;11.46;100.00
5284;BME280;15377;48.540;9.268;2023-09-07T04:55:57;97775.59;;;11.45;100.00
5284;BME280;15377;48.540;9.268;2023-09-07T04:58:23;97780.03;;;11.43;100.00
5284;BME280;15377;48.540;9.268;2023-09-07T05:00:48;97759.16;;;11.27;100.00
5284;BME280;15377;48.540;9.268;2023-09-07T05:03:14;97776.09;;;11.35;100.00
5284;BME280;15377;48.540;9.268;2023-09-07T05:05:39;97779.47;;;11.39;100.00
5284;BME280;15377;48.540;9.268;2023-09-07T05:08:05;97783.63;;;11.34;100.00
5284;BME280;15377;48.540;9.268;2023-09-07T05:10:34;97766.94;;;11.38;100.00
5284;BME280;15377;48.540;9.268;2023-09-07T05:12:59;97767.38;;;11.69;100.00
5284;BME280;15377;48.540;9.268;2023-09-07T05:15:25;97769.94;;;11.72;100.00
5284;BME280;15377;48.540;9.268;2023-09-07T05:17:51;97781.56;;;11.76;100.00
5284;BME280;15377;48.540;9.268;2023-09-07T05:20:16;97781.16;;;11.69;100.00
5284;BME280;15377;48.540;9.268;2023-09-07T05:22:42;97776.00;;;11.62;100.00
5284;BME280;15377;48.540;9.268;2023-09-07T05:25:10;97774.31;;;11.55;100.00
5284;BME280;15377;48.540;9.268;2023-09-07T05:27:35;97790.69;;;11.59;100.00
5284;BME280;15377;48.540;9.268;2023-09-07T05:30:02;97776.31;;;11.55;100.00
5284;BME280;15377;48.540;9.268;2023-09-07T05:32:27;97797.38;;;11.67;100.00
5284;BME280;15377;48.540;9.268;2023-09-07T05:34:52;97777.50;;;11.63;100.00
5284;BME280;15377;48.540;9.268;2023-09-07T05:37:18;97780.56;;;11.65;100.00
5284;BME280;15377;48.540;9.268;2023-09-07T05:39:43;97797.31;;;11.76;100.00
5284;BME280;15377;48.540;9.268;2023-09-07T05:42:09;97808.59;;;11.87;100.00
5284;BME280;15377;48.540;9.268;2023-09-07T05:44:34;97812.06;;;11.96;100.00
5284;BME280;15377;48.540;9.268;2023-09-07T05:46:59;97800.69;;;12.18;100.00
5284;BME280;15377;48.540;9.268;2023-09-07T05:49:25;97807.38;;;12.40;100.00
5284;BME280;15377;48.540;9.268;2023-09-07T05:51:50;97813.31;;;12.48;100.00
5284;BME280;15377;48.540;9.268;2023-09-07T05:54:16;97794.84;;;12.54;100.00
5284;BME280;15377;48.540;9.268;2023-09-07T05:56:41;97811.06;;;12.75;100.00
5284;BME280;15377;48.540;9.268;2023-09-07T05:59:06;97808.38;;;12.81;100.00
5284;BME280;15377;48.540;9.268;2023-09-07T06:01:32;97814.34;;;12.94;100.00
5284;BME280;15377;48.540;9.268;2023-09-07T06:03:58;97791.63;;;12.99;100.00
5284;BME280;15377;48.540;9.268;2023-09-07T06:06:24;97794.47;;;13.19;100.00
5284;BME280;15377;48.540;9.268;2023-09-07T06:08:54;97806.41;;;13.45;100.00
5284;BME280;15377;48.540;9.268;2023-09-07T06:11:20;97798.97;;;13.51;100.00
5284;BME280;15377;48.540;9.268;2023-09-07T06:13:45;97795.09;;;13.63;100.00
5284;BME280;15377;48.540;9.268;2023-09-07T06:16:12;97793.88;;;13.84;100.00
5284;BME280;15377;48.540;9.268;2023-09-07T06:18:37;97794.16;;;14.06;100.00
5284;BME280;15377;48.540;9.268;2023-09-07T06:21:03;97790.84;;;14.22;100.00
5284;BME280;15377;48.540;9.268;2023-09-07T06:23:29;97788.47;;;14.35;100.00
5284;BME280;15377;48.540;9.268;2023-09-07T06:25:55;97779.47;;;14.40;100.00
5284;BME280;15377;48.540;9.268;2023-09-07T06:28:20;97796.31;;;14.62;100.00
5284;BME280;15377;48.540;9.268;2023-09-07T06:30:46;97793.53;;;14.62;100.00
5284;BME280;15377;48.540;9.268;2023-09-07T06:33:11;97790.84;;;14.73;100.00
5284;BME280;15377;48.540;9.268;2023-09-07T06:35:37;97792.72;;;14.81;100.00
5284;BME280;15377;48.540;9.268;2023-09-07T06:38:03;97802.16;;;14.94;100.00
5284;BME280;15377;48.540;9.268;2023-09-07T06:40:28;97806.25;;;15.04;100.00
5284;BME280;15377;48.540;9.268;2023-09-07T06:42:53;97803.81;;;15.12;100.00
5284;BME280;15377;48.540;9.268;2023-09-07T06:45:19;97811.47;;;15.22;100.00
5284;BME280;15377;48.540;9.268;2023-09-07T06:47:44;97804.31;;;15.41;100.00
5284;BME280;15377;48.540;9.268;2023-09-07T06:50:09;97816.81;;;15.62;100.00
5284;BME280;15377;48.540;9.268;2023-09-07T06:52:35;97812.81;;;15.74;100.00
5284;BME280;15377;48.540;9.268;2023-09-07T06:55:00;97806.81;;;15.81;100.00
5284;BME280;15377;48.540;9.268;2023-09-07T06:57:26;97811.44;;;15.95;100.00
5284;BME280;15377;48.540;9.268;2023-09-07T06:59:52;97807.97;;;16.11;100.00
5284;BME280;15377;48.540;9.268;2023-09-07T07:02:17;97821.22;;;16.38;100.00
5284;BME280;15377;48.540;9.268;2023-09-07T07:04:43;97805.88;;;16.54;100.00
5284;BME280;15377;48.540;9.268;2023-09-07T07:07:10;97824.84;;;16.77;100.00
5284;BME280;15377;48.540;9.268;2023-09-07T07:09:36;97817.28;;;16.94;100.00
5284;BME280;15377;48.540;9.268;2023-09-07T07:12:03;97819.31;;;17.10;100.00
5284;BME280;15377;48.540;9.268;2023-09-07T07:14:28;97820.38;;;17.24;100.00
5284;BME280;15377;48.540;9.268;2023-09-07T07:16:54;97834.53;;;17.42;100.00
5284;BME280;15377;48.540;9.268;2023-09-07T07:19:19;97836.28;;;17.56;100.00
5284;BME280;15377;48.540;9.268;2023-09-07T07:21:44;97830.47;;;17.71;100.00
5284;BME280;15377;48.540;9.268;2023-09-07T07:24:10;97824.38;;;17.83;100.00
5284;BME280;15377;48.540;9.268;2023-09-07T07:26:35;97816.25;;;17.85;100.00
5284;BME280;15377;48.540;9.268;2023-09-07T07:29:01;97828.34;;;18.04;100.00
5284;BME280;15377;48.540;9.268;2023-09-07T07:31:28;97817.47;;;18.06;100.00
5284;BME280;15377;48.540;9.268;2023-09-07T07:33:54;97821.00;;;18.07;100.00
5284;BME280;15377;48.540;9.268;2023-09-07T07:36:20;97828.31;;;18.15;100.00
5284;BME280;15377;48.540;9.268;2023-09-07T07:38:46;97828.53;;;18.23;100.00
5284;BME280;15377;48.540;9.268;2023-09-07T07:41:11;97841.44;;;18.31;100.00
5284;BME280;15377;48.540;9.268;2023-09-07T07:43:37;97836.06;;;18.44;100.00
5284;BME280;15377;48.540;9.268;2023-09-07T07:46:02;97831.22;;;18.50;100.00
5284;BME280;15377;48.540;9.268;2023-09-07T07:48:27;97829.63;;;18.60;100.00
5284;BME280;15377;48.540;9.268;2023-09-07T07:50:55;97821.50;;;18.68;100.00
5284;BME280;15377;48.540;9.268;2023-09-07T07:53:20;97815.16;;;18.73;100.00
5284;BME280;15377;48.540;9.268;2023-09-07T07:55:45;97813.59;;;18.77;100.00
5284;BME280;15377;48.540;9.268;2023-09-07T07:58:11;97824.34;;;18.97;100.00
5284;BME280;15377;48.540;9.268;2023-09-07T08:00:38;97823.34;;;19.00;100.00
5284;BME280;15377;48.540;9.268;2023-09-07T08:03:06;97827.06;;;19.08;100.00
5284;BME280;15377;48.540;9.268;2023-09-07T08:05:32;97829.00;;;19.18;100.00
5284;BME280;15377;48.540;9.268;2023-09-07T08:07:58;97819.09;;;19.23;100.00
5284;BME280;15377;48.540;9.268;2023-09-07T08:10:23;97824.09;;;19.35;100.00
5284;BME280;15377;48.540;9.268;2023-09-07T08:12:53;97830.31;;;19.47;100.00
5284;BME280;15377;48.540;9.268;2023-09-07T08:15:19;97812.47;;;19.55;100.00
5284;BME280;15377;48.540;9.268;2023-09-07T08:17:47;97831.41;;;19.68;100.00
5284;BME280;15377;48.540;9.268;2023-09-07T08:20:13;97824.47;;;19.74;100.00
5284;BME280;15377;48.540;9.268;2023-09-07T08:22:39;97806.19;;;19.73;100.00
5284;BME280;15377;48.540;9.268;2023-09-07T08:25:06;97815.47;;;19.87;100.00
5284;BME280;15377;48.540;9.268;2023-09-07T08:27:32;97817.66;;;19.94;100.00
5284;BME280;15377;48.540;9.268;2023-09-07T08:29:57;97812.31;;;19.96;100.00
5284;BME280;15377;48.540;9.268;2023-09-07T08:32:24;97808.63;;;20.12;100.00
5284;BME280;15377;48.540;9.268;2023-09-07T08:34:49;97800.59;;;20.21;100.00
5284;BME280;15377;48.540;9.268;2023-09-07T08:37:16;97803.06;;;20.30;100.00
5284;BME280;15377;48.540;9.268;2023-09-07T08:39:41;97800.78;;;20.29;100.00
5284;BME280;15377;48.540;9.268;2023-09-07T08:42:07;97817.94;;;20.38;100.00
5284;BME280;15377;48.540;9.268;2023-09-07T08:44:35;97813.78;;;20.45;100.00
5284;BME280;15377;48.540;9.268;2023-09-07T08:47:02;97818.56;;;20.50;100.00
5284;BME280;15377;48.540;9.268;2023-09-07T08:49:28;97784.94;;;20.37;100.00
5284;BME280;15377;48.540;9.268;2023-09-07T08:51:58;97826.63;;;20.72;100.00
5284;BME280;15377;48.540;9.268;2023-09-07T08:54:24;97819.44;;;20.76;100.00
5284;BME280;15377;48.540;9.268;2023-09-07T08:56:50;97822.34;;;20.89;100.00
5284;BME280;15377;48.540;9.268;2023-09-07T08:59:16;97828.03;;;21.02;100.00
5284;BME280;15377;48.540;9.268;2023-09-07T09:01:41;97820.94;;;21.14;100.00
5284;BME280;15377;48.540;9.268;2023-09-07T09:04:07;97822.00;;;21.30;100.00
5284;BME280;15377;48.540;9.268;2023-09-07T09:06:33;97817.69;;;21.42;100.00
5284;BME280;15377;48.540;9.268;2023-09-07T09:08:59;97830.56;;;21.50;100.00
5284;BME280;15377;48.540;9.268;2023-09-07T09:11:25;97826.84;;;21.74;100.00
5284;BME280;15377;48.540;9.268;2023-09-07T09:13:52;97828.59;;;21.77;100.00
5284;BME280;15377;48.540;9.268;2023-09-07T09:16:18;97820.19;;;22.03;100.00
5284;BME280;15377;48.540;9.268;2023-09-07T09:18:55;97834.44;;;22.44;100.00
5284;BME280;15377;48.540;9.268;2023-09-07T09:21:23;97811.91;;;22.83;100.00
5284;BME280;15377;48.540;9.268;2023-09-07T09:23:51;97814.81;;;23.23;100.00
5284;BME280;15377;48.540;9.268;2023-09-07T09:26:17;97813.47;;;24.42;100.00
5284;BME280;15377;48.540;9.268;2023-09-07T09:28:43;97816.81;;;25.41;100.00
5284;BME280;15377;48.540;9.268;2023-09-07T09:31:12;97823.34;;;26.41;100.00
5284;BME280;15377;48.540;9.268;2023-09-07T09:33:41;97814.88;;;27.35;100.00
5284;BME280;15377;48.540;9.268;2023-09-07T09:36:08;97809.66;;;27.73;100.00
5284;BME280;15377;48.540;9.268;2023-09-07T09:38:34;97801.91;;;27.81;100.00
5284;BME280;15377;48.540;9.268;2023-09-07T09:41:00;97803.31;;;28.48;97.01
5284;BME280;15377;48.540;9.268;2023-09-07T09:43:26;97806.50;;;29.12;93.32
5284;BME280;15377;48.540;9.268;2023-09-07T09:45:52;97763.38;;;29.50;92.52
5284;BME280;15377;48.540;9.268;2023-09-07T09:48:22;97805.44;;;30.35;80.71
5284;BME280;15377;48.540;9.268;2023-09-07T09:50:48;97798.44;;;30.74;83.22
5284;BME280;15377;48.540;9.268;2023-09-07T09:53:15;97805.31;;;31.49;79.45
5284;BME280;15377;48.540;9.268;2023-09-07T09:55:44;97804.63;;;31.79;74.39
5284;BME280;15377;48.540;9.268;2023-09-07T09:58:11;97800.31;;;31.99;70.20
5284;BME280;15377;48.540;9.268;2023-09-07T10:00:37;97802.72;;;31.13;69.90
5284;BME280;15377;48.540;9.268;2023-09-07T10:03:08;97800.44;;;31.30;72.89
5284;BME280;15377;48.540;9.268;2023-09-07T10:05:38;97800.09;;;31.45;72.40
5284;BME280;15377;48.540;9.268;2023-09-07T10:08:09;97799.00;;;31.60;70.71
5284;BME280;15377;48.540;9.268;2023-09-07T10:10:36;97791.78;;;31.59;73.40
5284;BME280;15377;48.540;9.268;2023-09-07T10:13:03;97783.09;;;32.17;66.21
5284;BME280;15377;48.540;9.268;2023-09-07T10:15:32;97791.22;;;31.51;70.54
5284;BME280;15377;48.540;9.268;2023-09-07T10:18:11;97787.84;;;31.83;70.60
5284;BME280;15377;48.540;9.268;2023-09-07T10:20:58;97777.41;;;32.17;69.55
5284;BME280;15377;48.540;9.268;2023-09-07T10:23:39;97779.34;;;32.45;68.87
5284;BME280;15377;48.540;9.268;2023-09-07T10:26:11;97780.03;;;32.99;67.85
5284;BME280;15377;48.540;9.268;2023-09-07T10:28:37;97764.75;;;33.27;63.42
5284;BME280;15377;48.540;9.268;2023-09-07T10:33:33;97769.91;;;33.19;65.60
5284;BME280;15377;48.540;9.268;2023-09-07T10:35:59;97766.28;;;33.74;62.25
5284;BME280;15377;48.540;9.268;2023-09-07T10:38:24;97768.47;;;34.10;58.89
5284;BME280;15377;48.540;9.268;2023-09-07T10:40:56;97754.31;;;34.24;57.38
5284;BME280;15377;48.540;9.268;2023-09-07T10:43:30;97761.13;;;34.19;58.37
5284;BME280;15377;48.540;9.268;2023-09-07T10:45:56;97759.28;;;34.23;58.06
5284;BME280;15377;48.540;9.268;2023-09-07T10:48:22;97757.72;;;34.70;56.72
5284;BME280;15377;48.540;9.268;2023-09-07T10:50:48;97748.31;;;34.20;56.42
5284;BME280;15377;48.540;9.268;2023-09-07T10:53:14;97749.84;;;34.09;58.63
5284;BME280;15377;48.540;9.268;2023-09-07T10:55:41;97748.63;;;33.32;59.05
5284;BME280;15377;48.540;9.268;2023-09-07T10:58:09;97746.16;;;33.26;60.73
5284;BME280;15377;48.540;9.268;2023-09-07T11:00:35;97742.94;;;33.43;60.76
5284;BME280;15377;48.540;9.268;2023-09-07T11:03:07;97736.72;;;33.58;60.54
5284;BME280;15377;48.540;9.268;2023-09-07T11:05:33;97745.13;;;33.22;61.66
5284;BME280;15377;48.540;9.268;2023-09-07T11:08:01;97738.06;;;33.23;62.37
5284;BME280;15377;48.540;9.268;2023-09-07T11:10:26;97732.72;;;33.17;62.38
5284;BME280;15377;48.540;9.268;2023-09-07T11:12:52;97736.91;;;32.40;66.04
5284;BME280;15377;48.540;9.268;2023-09-07T11:15:18;97740.91;;;31.13;71.11
5284;BME280;15377;48.540;9.268;2023-09-07T11:17:44;97745.44;;;30.02;79.30
5284;BME280;15377;48.540;9.268;2023-09-07T11:20:11;97738.41;;;29.03;85.38
5284;BME280;15377;48.540;9.268;2023-09-07T11:22:37;97717.78;;;28.32;90.94
5284;BME280;15377;48.540;9.268;2023-09-07T11:25:05;97716.16;;;27.71;96.67
5284;BME280;15377;48.540;9.268;2023-09-07T11:27:31;97705.34;;;27.60;100.00
5284;BME280;15377;48.540;9.268;2023-09-07T11:30:00;97714.59;;;27.36;100.00
5284;BME280;15377;48.540;9.268;2023-09-07T11:32:33;97713.97;;;27.21;100.00
5284;BME280;15377;48.540;9.268;2023-09-07T11:34:59;97696.84;;;26.87;100.00
5284;BME280;15377;48.540;9.268;2023-09-07T11:37:28;97697.63;;;26.87;100.00
5284;BME280;15377;48.540;9.268;2023-09-07T11:39:53;97715.28;;;26.88;100.00
5284;BME280;15377;48.540;9.268;2023-09-07T11:42:18;97708.56;;;26.83;100.00
5284;BME280;15377;48.540;9.268;2023-09-07T11:44:44;97701.00;;;26.86;100.00
5284;BME280;15377;48.540;9.268;2023-09-07T11:47:09;97692.47;;;26.69;100.00
5284;BME280;15377;48.540;9.268;2023-09-07T11:49:34;97697.31;;;26.76;100.00
5284;BME280;15377;48.540;9.268;2023-09-07T11:52:00;97711.28;;;26.66;100.00
5284;BME280;15377;48.540;9.268;2023-09-07T11:54:26;97701.50;;;26.67;100.00
5284;BME280;15377;48.540;9.268;2023-09-07T11:56:52;97693.16;;;26.77;100.00
5284;BME280;15377;48.540;9.268;2023-09-07T11:59:17;97707.38;;;26.86;100.00
5284;BME280;15377;48.540;9.268;2023-09-07T12:01:43;97702.50;;;26.87;100.00
5284;BME280;15377;48.540;9.268;2023-09-07T12:04:09;97698.03;;;26.84;100.00
5284;BME280;15377;48.540;9.268;2023-09-07T12:06:35;97701.81;;;26.79;100.00
5284;BME280;15377;48.540;9.268;2023-09-07T12:09:05;97683.59;;;26.72;100.00
5284;BME280;15377;48.540;9.268;2023-09-07T12:11:31;97694.50;;;26.76;100.00
5284;BME280;15377;48.540;9.268;2023-09-07T12:13:57;97683.38;;;26.78;100.00
5284;BME280;15377;48.540;9.268;2023-09-07T12:16:22;97695.69;;;26.90;100.00
5284;BME280;15377;48.540;9.268;2023-09-07T12:18:48;97688.63;;;26.81;100.00
5284;BME280;15377;48.540;9.268;2023-09-07T12:21:13;97685.63;;;26.79;100.00
5284;BME280;15377;48.540;9.268;2023-09-07T12:23:39;97683.41;;;26.70;100.00
5284;BME280;15377;48.540;9.268;2023-09-07T12:26:04;97685.63;;;26.79;100.00
5284;BME280;15377;48.540;9.268;2023-09-07T12:28:30;97690.38;;;26.69;100.00
5284;BME280;15377;48.540;9.268;2023-09-07T12:30:56;97677.75;;;26.70;100.00
5284;BME280;15377;48.540;9.268;2023-09-07T12:33:22;97673.44;;;26.69;100.00
5284;BME280;15377;48.540;9.268;2023-09-07T12:35:48;97675.91;;;26.65;100.00
5284;BME280;15377;48.540;9.268;2023-09-07T12:38:13;97677.75;;;26.70;100.00
5284;BME280;15377;48.540;9.268;2023-09-07T12:40:42;97669.47;;;26.72;100.00
5284;BME280;15377;48.540;9.268;2023-09-07T12:43:08;97665.31;;;26.73;100.00
5284;BME280;15377;48.540;9.268;2023-09-07T12:45:33;97672.19;;;26.87;100.00
5284;BME280;15377;48.540;9.268;2023-09-07T12:47:58;97662.56;;;26.90;100.00
5284;BME280;15377;48.540;9.268;2023-09-07T12:50:26;97655.03;;;26.93;100.00
5284;BME280;15377;48.540;9.268;2023-09-07T12:52:52;97663.94;;;27.06;100.00
5284;BME280;15377;48.540;9.268;2023-09-07T12:55:17;97655.81;;;27.10;100.00
5284;BME280;15377;48.540;9.268;2023-09-07T12:57:44;97666.16;;;27.15;100.00
5284;BME280;15377;48.540;9.268;2023-09-07T13:00:09;97664.09;;;27.16;100.00